sensor_id;sensor_type;location;lat;lon;timestamp;P1;durP1;ratioP1;P2;durP2;ratioP2
22737;SDS011;11536;50.860;4.286;2022-12-07T00:01:40;17.90;;;10.23;;
22737;SDS011;11536;50.860;4.286;2022-12-07T00:04:07;17.10;;;10.18;;
22737;SDS011;11536;50.860;4.286;2022-12-07T00:09:02;15.18;;;9.32;;
22737;SDS011;11536;50.860;4.286;2022-12-07T00:11:29;16.02;;;9.63;;
22737;SDS011;11536;50.860;4.286;2022-12-07T00:13:58;19.83;;;10.23;;
22737;SDS011;11536;50.860;4.286;2022-12-07T00:16:27;17.58;;;9.80;;
22737;SDS011;11536;50.860;4.286;2022-12-07T00:18:54;14.85;;;9.35;;
22737;SDS011;11536;50.860;4.286;2022-12-07T00:21:41;14.88;;;9.32;;
22737;SDS011;11536;50.860;4.286;2022-12-07T00:24:06;15.27;;;9.15;;
22737;SDS011;11536;50.860;4.286;2022-12-07T00:26:33;13.77;;;8.75;;
22737;SDS011;11536;50.860;4.286;2022-12-07T00:29:01;14.15;;;9.05;;
22737;SDS011;11536;50.860;4.286;2022-12-07T00:31:31;16.48;;;9.30;;
22737;SDS011;11536;50.860;4.286;2022-12-07T00:33:58;16.80;;;9.13;;
22737;SDS011;11536;50.860;4.286;2022-12-07T00:36:24;14.02;;;8.63;;
22737;SDS011;11536;50.860;4.286;2022-12-07T00:38:51;16.15;;;8.88;;
22737;SDS011;11536;50.860;4.286;2022-12-07T00:41:18;14.80;;;8.98;;
22737;SDS011;11536;50.860;4.286;2022-12-07T00:43:48;15.10;;;9.20;;
22737;SDS011;11536;50.860;4.286;2022-12-07T00:46:15;16.60;;;8.88;;
22737;SDS011;11536;50.860;4.286;2022-12-07T00:48:42;14.98;;;8.75;;
22737;SDS011;11536;50.860;4.286;2022-12-07T00:51:09;14.65;;;8.55;;
22737;SDS011;11536;50.860;4.286;2022-12-07T00:53:37;15.57;;;8.13;;
22737;SDS011;11536;50.860;4.286;2022-12-07T00:56:06;14.43;;;9.00;;
22737;SDS011;11536;50.860;4.286;2022-12-07T00:58:33;16.10;;;8.48;;
22737;SDS011;11536;50.860;4.286;2022-12-07T01:00:59;15.57;;;8.90;;
22737;SDS011;11536;50.860;4.286;2022-12-07T01:03:28;14.38;;;8.98;;
22737;SDS011;11536;50.860;4.286;2022-12-07T01:05:55;14.20;;;8.88;;
22737;SDS011;11536;50.860;4.286;2022-12-07T01:08:21;11.98;;;8.35;;
22737;SDS011;11536;50.860;4.286;2022-12-07T01:10:48;13.25;;;8.63;;
22737;SDS011;11536;50.860;4.286;2022-12-07T01:13:14;19.73;;;10.18;;
22737;SDS011;11536;50.860;4.286;2022-12-07T01:15:41;16.27;;;10.05;;
22737;SDS011;11536;50.860;4.286;2022-12-07T01:18:08;12.90;;;8.45;;
22737;SDS011;11536;50.860;4.286;2022-12-07T01:20:34;14.52;;;9.10;;
22737;SDS011;11536;50.860;4.286;2022-12-07T01:23:00;14.85;;;8.70;;
22737;SDS011;11536;50.860;4.286;2022-12-07T01:25:25;14.57;;;8.80;;
22737;SDS011;11536;50.860;4.286;2022-12-07T01:27:51;14.60;;;8.88;;
22737;SDS011;11536;50.860;4.286;2022-12-07T01:30:16;15.73;;;9.07;;
22737;SDS011;11536;50.860;4.286;2022-12-07T01:32:42;15.18;;;9.10;;
22737;SDS011;11536;50.860;4.286;2022-12-07T01:35:08;17.50;;;9.15;;
22737;SDS011;11536;50.860;4.286;2022-12-07T01:37:34;15.50;;;8.85;;
22737;SDS011;11536;50.860;4.286;2022-12-07T01:40:01;12.75;;;8.38;;
22737;SDS011;11536;50.860;4.286;2022-12-07T01:42:28;13.77;;;8.57;;
22737;SDS011;11536;50.860;4.286;2022-12-07T01:47:57;11.70;;;6.20;;
22737;SDS011;11536;50.860;4.286;2022-12-07T01:50:24;17.67;;;9.13;;
22737;SDS011;11536;50.860;4.286;2022-12-07T01:52:53;16.15;;;9.50;;
22737;SDS011;11536;50.860;4.286;2022-12-07T01:55:20;16.80;;;9.15;;
22737;SDS011;11536;50.860;4.286;2022-12-07T01:57:49;14.32;;;9.00;;
22737;SDS011;11536;50.860;4.286;2022-12-07T02:00:17;16.35;;;8.88;;
22737;SDS011;11536;50.860;4.286;2022-12-07T02:03:05;15.68;;;8.32;;
22737;SDS011;11536;50.860;4.286;2022-12-07T02:05:35;15.95;;;8.75;;
22737;SDS011;11536;50.860;4.286;2022-12-07T02:08:03;16.55;;;8.95;;
22737;SDS011;11536;50.860;4.286;2022-12-07T02:10:30;16.70;;;9.40;;
22737;SDS011;11536;50.860;4.286;2022-12-07T02:12:57;16.88;;;11.13;;
22737;SDS011;11536;50.860;4.286;2022-12-07T02:15:34;17.85;;;11.07;;
22737;SDS011;11536;50.860;4.286;2022-12-07T02:18:21;20.83;;;11.82;;
22737;SDS011;11536;50.860;4.286;2022-12-07T02:20:58;18.55;;;11.05;;
22737;SDS011;11536;50.860;4.286;2022-12-07T02:23:38;17.50;;;10.80;;
22737;SDS011;11536;50.860;4.286;2022-12-07T02:26:37;20.02;;;12.05;;
22737;SDS011;11536;50.860;4.286;2022-12-07T02:29:20;17.63;;;10.65;;
22737;SDS011;11536;50.860;4.286;2022-12-07T02:32:10;19.17;;;10.68;;
22737;SDS011;11536;50.860;4.286;2022-12-07T02:35:24;16.25;;;10.02;;
22737;SDS011;11536;50.860;4.286;2022-12-07T02:40:22;17.60;;;9.98;;
22737;SDS011;11536;50.860;4.286;2022-12-07T02:43:17;19.42;;;9.38;;
22737;SDS011;11536;50.860;4.286;2022-12-07T02:45:58;17.17;;;9.90;;
22737;SDS011;11536;50.860;4.286;2022-12-07T02:48:32;17.48;;;10.20;;
22737;SDS011;11536;50.860;4.286;2022-12-07T02:50:59;13.93;;;9.13;;
22737;SDS011;11536;50.860;4.286;2022-12-07T02:53:35;15.57;;;8.93;;
22737;SDS011;11536;50.860;4.286;2022-12-07T02:56:27;16.30;;;8.93;;
22737;SDS011;11536;50.860;4.286;2022-12-07T03:02:19;13.80;;;7.80;;
22737;SDS011;11536;50.860;4.286;2022-12-07T03:10:29;14.43;;;7.90;;
22737;SDS011;11536;50.860;4.286;2022-12-07T03:13:19;9.27;;;5.72;;
22737;SDS011;11536;50.860;4.286;2022-12-07T03:18:31;13.48;;;7.32;;
22737;SDS011;11536;50.860;4.286;2022-12-07T03:21:02;18.38;;;7.07;;
22737;SDS011;11536;50.860;4.286;2022-12-07T03:23:33;13.67;;;7.40;;
22737;SDS011;11536;50.860;4.286;2022-12-07T03:26:02;12.70;;;7.38;;
22737;SDS011;11536;50.860;4.286;2022-12-07T03:28:33;14.95;;;7.20;;
22737;SDS011;11536;50.860;4.286;2022-12-07T03:31:03;11.50;;;6.88;;
22737;SDS011;11536;50.860;4.286;2022-12-07T03:33:42;12.63;;;6.80;;
22737;SDS011;11536;50.860;4.286;2022-12-07T03:36:24;13.30;;;6.93;;
22737;SDS011;11536;50.860;4.286;2022-12-07T03:38:57;12.88;;;7.15;;
22737;SDS011;11536;50.860;4.286;2022-12-07T03:41:32;12.90;;;6.90;;
22737;SDS011;11536;50.860;4.286;2022-12-07T03:44:01;13.27;;;6.80;;
22737;SDS011;11536;50.860;4.286;2022-12-07T03:46:43;14.60;;;7.60;;
22737;SDS011;11536;50.860;4.286;2022-12-07T03:49:22;11.98;;;6.70;;
22737;SDS011;11536;50.860;4.286;2022-12-07T03:51:51;11.32;;;6.40;;
22737;SDS011;11536;50.860;4.286;2022-12-07T03:54:48;11.98;;;7.00;;
22737;SDS011;11536;50.860;4.286;2022-12-07T03:57:18;11.23;;;6.30;;
22737;SDS011;11536;50.860;4.286;2022-12-07T03:59:45;10.70;;;5.95;;
22737;SDS011;11536;50.860;4.286;2022-12-07T04:02:12;12.63;;;6.75;;
22737;SDS011;11536;50.860;4.286;2022-12-07T04:04:39;13.43;;;6.30;;
22737;SDS011;11536;50.860;4.286;2022-12-07T04:07:04;11.60;;;6.38;;
22737;SDS011;11536;50.860;4.286;2022-12-07T04:09:30;11.48;;;6.00;;
22737;SDS011;11536;50.860;4.286;2022-12-07T04:11:56;11.50;;;6.45;;
22737;SDS011;11536;50.860;4.286;2022-12-07T04:14:21;11.55;;;6.22;;
22737;SDS011;11536;50.860;4.286;2022-12-07T04:16:51;15.80;;;6.93;;
22737;SDS011;11536;50.860;4.286;2022-12-07T04:19:19;15.35;;;6.53;;
22737;SDS011;11536;50.860;4.286;2022-12-07T04:21:46;10.05;;;5.80;;
22737;SDS011;11536;50.860;4.286;2022-12-07T04:24:12;14.15;;;5.60;;
22737;SDS011;11536;50.860;4.286;2022-12-07T04:26:40;9.40;;;5.63;;
22737;SDS011;11536;50.860;4.286;2022-12-07T04:29:06;12.07;;;6.00;;
22737;SDS011;11536;50.860;4.286;2022-12-07T04:31:31;14.27;;;6.97;;
22737;SDS011;11536;50.860;4.286;2022-12-07T04:33:57;15.57;;;6.65;;
22737;SDS011;11536;50.860;4.286;2022-12-07T04:36:23;12.52;;;6.97;;
22737;SDS011;11536;50.860;4.286;2022-12-07T04:38:48;14.05;;;7.15;;
22737;SDS011;11536;50.860;4.286;2022-12-07T04:41:14;13.00;;;7.03;;
22737;SDS011;11536;50.860;4.286;2022-12-07T04:43:39;15.35;;;7.35;;
22737;SDS011;11536;50.860;4.286;2022-12-07T04:46:08;11.52;;;6.78;;
22737;SDS011;11536;50.860;4.286;2022-12-07T04:48:33;11.27;;;6.85;;
22737;SDS011;11536;50.860;4.286;2022-12-07T04:50:59;13.45;;;6.85;;
22737;SDS011;11536;50.860;4.286;2022-12-07T04:53:25;11.35;;;6.50;;
22737;SDS011;11536;50.860;4.286;2022-12-07T04:55:50;14.63;;;7.40;;
22737;SDS011;11536;50.860;4.286;2022-12-07T04:58:16;10.32;;;6.28;;
22737;SDS011;11536;50.860;4.286;2022-12-07T05:00:41;11.38;;;6.32;;
22737;SDS011;11536;50.860;4.286;2022-12-07T05:03:07;11.88;;;6.85;;
22737;SDS011;11536;50.860;4.286;2022-12-07T05:05:32;12.30;;;6.68;;
22737;SDS011;11536;50.860;4.286;2022-12-07T05:07:58;11.80;;;6.25;;
22737;SDS011;11536;50.860;4.286;2022-12-07T05:10:23;11.43;;;6.63;;
22737;SDS011;11536;50.860;4.286;2022-12-07T05:12:49;10.60;;;5.72;;
22737;SDS011;11536;50.860;4.286;2022-12-07T05:15:15;12.73;;;6.07;;
22737;SDS011;11536;50.860;4.286;2022-12-07T05:17:41;11.30;;;5.88;;
22737;SDS011;11536;50.860;4.286;2022-12-07T05:20:07;11.45;;;6.72;;
22737;SDS011;11536;50.860;4.286;2022-12-07T05:22:33;17.48;;;6.57;;
22737;SDS011;11536;50.860;4.286;2022-12-07T05:24:59;17.02;;;6.50;;
22737;SDS011;11536;50.860;4.286;2022-12-07T05:27:24;12.60;;;5.90;;
22737;SDS011;11536;50.860;4.286;2022-12-07T05:29:50;11.23;;;5.75;;
22737;SDS011;11536;50.860;4.286;2022-12-07T05:32:16;12.80;;;6.65;;
22737;SDS011;11536;50.860;4.286;2022-12-07T05:34:42;14.27;;;6.38;;
22737;SDS011;11536;50.860;4.286;2022-12-07T05:37:07;10.02;;;5.82;;
22737;SDS011;11536;50.860;4.286;2022-12-07T05:39:33;14.88;;;6.45;;
22737;SDS011;11536;50.860;4.286;2022-12-07T05:41:58;11.02;;;6.10;;
22737;SDS011;11536;50.860;4.286;2022-12-07T05:44:40;11.27;;;6.07;;
22737;SDS011;11536;50.860;4.286;2022-12-07T05:47:10;11.68;;;6.20;;
22737;SDS011;11536;50.860;4.286;2022-12-07T05:49:37;11.85;;;6.57;;
22737;SDS011;11536;50.860;4.286;2022-12-07T05:52:03;11.45;;;6.45;;
22737;SDS011;11536;50.860;4.286;2022-12-07T05:54:29;12.93;;;6.00;;
22737;SDS011;11536;50.860;4.286;2022-12-07T05:56:54;14.38;;;6.10;;
22737;SDS011;11536;50.860;4.286;2022-12-07T05:59:20;11.88;;;5.50;;
22737;SDS011;11536;50.860;4.286;2022-12-07T06:01:55;12.05;;;6.40;;
22737;SDS011;11536;50.860;4.286;2022-12-07T06:04:23;10.57;;;6.40;;
22737;SDS011;11536;50.860;4.286;2022-12-07T06:06:50;14.63;;;6.22;;
22737;SDS011;11536;50.860;4.286;2022-12-07T06:09:15;10.57;;;5.82;;
22737;SDS011;11536;50.860;4.286;2022-12-07T06:11:41;12.25;;;6.60;;
22737;SDS011;11536;50.860;4.286;2022-12-07T06:16:51;10.73;;;6.28;;
22737;SDS011;11536;50.860;4.286;2022-12-07T06:19:16;13.75;;;6.38;;
22737;SDS011;11536;50.860;4.286;2022-12-07T06:21:42;11.32;;;5.88;;
22737;SDS011;11536;50.860;4.286;2022-12-07T06:24:09;12.63;;;6.25;;
22737;SDS011;11536;50.860;4.286;2022-12-07T06:26:36;12.45;;;6.35;;
22737;SDS011;11536;50.860;4.286;2022-12-07T06:29:05;12.93;;;6.60;;
22737;SDS011;11536;50.860;4.286;2022-12-07T06:31:31;12.45;;;5.97;;
22737;SDS011;11536;50.860;4.286;2022-12-07T06:33:58;12.18;;;6.30;;
22737;SDS011;11536;50.860;4.286;2022-12-07T06:36:24;10.15;;;5.65;;
22737;SDS011;11536;50.860;4.286;2022-12-07T06:38:49;9.48;;;5.38;;
22737;SDS011;11536;50.860;4.286;2022-12-07T06:41:15;8.80;;;5.38;;
22737;SDS011;11536;50.860;4.286;2022-12-07T06:43:41;12.57;;;6.80;;
22737;SDS011;11536;50.860;4.286;2022-12-07T06:46:07;17.77;;;7.15;;
22737;SDS011;11536;50.860;4.286;2022-12-07T06:48:32;15.90;;;7.18;;
22737;SDS011;11536;50.860;4.286;2022-12-07T06:50:58;12.75;;;7.43;;
22737;SDS011;11536;50.860;4.286;2022-12-07T06:53:24;15.63;;;7.85;;
22737;SDS011;11536;50.860;4.286;2022-12-07T06:55:49;15.50;;;8.27;;
22737;SDS011;11536;50.860;4.286;2022-12-07T06:58:16;14.18;;;8.40;;
22737;SDS011;11536;50.860;4.286;2022-12-07T07:00:42;15.25;;;8.48;;
22737;SDS011;11536;50.860;4.286;2022-12-07T07:03:08;13.82;;;9.45;;
22737;SDS011;11536;50.860;4.286;2022-12-07T07:05:34;15.32;;;9.43;;
22737;SDS011;11536;50.860;4.286;2022-12-07T07:08:01;21.50;;;9.77;;
22737;SDS011;11536;50.860;4.286;2022-12-07T07:10:27;16.25;;;9.38;;
22737;SDS011;11536;50.860;4.286;2022-12-07T07:12:53;15.77;;;9.25;;
22737;SDS011;11536;50.860;4.286;2022-12-07T07:15:18;15.02;;;9.43;;
22737;SDS011;11536;50.860;4.286;2022-12-07T07:17:44;19.70;;;10.63;;
22737;SDS011;11536;50.860;4.286;2022-12-07T07:20:10;14.45;;;9.43;;
22737;SDS011;11536;50.860;4.286;2022-12-07T07:22:36;15.70;;;9.15;;
22737;SDS011;11536;50.860;4.286;2022-12-07T07:25:02;19.90;;;9.70;;
22737;SDS011;11536;50.860;4.286;2022-12-07T07:27:27;14.13;;;8.50;;
22737;SDS011;11536;50.860;4.286;2022-12-07T07:29:53;16.35;;;9.68;;
22737;SDS011;11536;50.860;4.286;2022-12-07T07:32:19;14.65;;;9.13;;
22737;SDS011;11536;50.860;4.286;2022-12-07T07:34:46;15.15;;;8.77;;
22737;SDS011;11536;50.860;4.286;2022-12-07T07:37:11;16.33;;;9.20;;
22737;SDS011;11536;50.860;4.286;2022-12-07T07:39:37;16.92;;;8.93;;
22737;SDS011;11536;50.860;4.286;2022-12-07T07:42:03;17.92;;;10.20;;
22737;SDS011;11536;50.860;4.286;2022-12-07T07:44:29;16.10;;;9.10;;
22737;SDS011;11536;50.860;4.286;2022-12-07T07:46:55;13.55;;;7.95;;
22737;SDS011;11536;50.860;4.286;2022-12-07T07:49:20;12.15;;;7.53;;
22737;SDS011;11536;50.860;4.286;2022-12-07T07:51:46;15.43;;;8.57;;
22737;SDS011;11536;50.860;4.286;2022-12-07T07:54:11;15.05;;;8.70;;
22737;SDS011;11536;50.860;4.286;2022-12-07T07:56:37;12.77;;;7.95;;
22737;SDS011;11536;50.860;4.286;2022-12-07T07:59:03;16.85;;;7.47;;
22737;SDS011;11536;50.860;4.286;2022-12-07T08:01:28;12.73;;;7.90;;
22737;SDS011;11536;50.860;4.286;2022-12-07T08:03:54;14.00;;;7.35;;
22737;SDS011;11536;50.860;4.286;2022-12-07T08:06:19;14.05;;;8.07;;
22737;SDS011;11536;50.860;4.286;2022-12-07T08:08:45;10.75;;;6.72;;
22737;SDS011;11536;50.860;4.286;2022-12-07T08:11:11;14.88;;;7.00;;
22737;SDS011;11536;50.860;4.286;2022-12-07T08:13:36;12.48;;;6.97;;
22737;SDS011;11536;50.860;4.286;2022-12-07T08:16:06;13.95;;;6.75;;
22737;SDS011;11536;50.860;4.286;2022-12-07T08:18:37;13.90;;;7.95;;
22737;SDS011;11536;50.860;4.286;2022-12-07T08:21:04;15.73;;;8.55;;
22737;SDS011;11536;50.860;4.286;2022-12-07T08:23:31;11.73;;;7.85;;
22737;SDS011;11536;50.860;4.286;2022-12-07T08:26:04;19.17;;;9.45;;
22737;SDS011;11536;50.860;4.286;2022-12-07T08:28:32;16.90;;;9.32;;
22737;SDS011;11536;50.860;4.286;2022-12-07T08:31:15;15.07;;;9.38;;
22737;SDS011;11536;50.860;4.286;2022-12-07T08:33:44;13.88;;;8.25;;
22737;SDS011;11536;50.860;4.286;2022-12-07T08:36:12;19.27;;;11.05;;
22737;SDS011;11536;50.860;4.286;2022-12-07T08:38:38;27.48;;;14.40;;
22737;SDS011;11536;50.860;4.286;2022-12-07T08:41:05;24.75;;;13.18;;
22737;SDS011;11536;50.860;4.286;2022-12-07T08:43:32;24.38;;;12.70;;
22737;SDS011;11536;50.860;4.286;2022-12-07T08:46:12;19.70;;;11.98;;
22737;SDS011;11536;50.860;4.286;2022-12-07T08:48:52;16.75;;;9.90;;
22737;SDS011;11536;50.860;4.286;2022-12-07T08:51:21;15.50;;;9.38;;
22737;SDS011;11536;50.860;4.286;2022-12-07T08:53:49;16.50;;;9.93;;
22737;SDS011;11536;50.860;4.286;2022-12-07T08:56:16;16.75;;;9.07;;
22737;SDS011;11536;50.860;4.286;2022-12-07T08:58:41;16.27;;;9.05;;
22737;SDS011;11536;50.860;4.286;2022-12-07T09:01:08;17.33;;;8.30;;
22737;SDS011;11536;50.860;4.286;2022-12-07T09:03:33;16.70;;;8.82;;
22737;SDS011;11536;50.860;4.286;2022-12-07T09:05:59;15.02;;;7.40;;
22737;SDS011;11536;50.860;4.286;2022-12-07T09:08:32;16.00;;;7.47;;
22737;SDS011;11536;50.860;4.286;2022-12-07T09:11:01;11.75;;;6.35;;
22737;SDS011;11536;50.860;4.286;2022-12-07T09:13:26;14.90;;;6.05;;
22737;SDS011;11536;50.860;4.286;2022-12-07T09:15:52;14.20;;;6.18;;
22737;SDS011;11536;50.860;4.286;2022-12-07T09:18:18;10.52;;;5.68;;
22737;SDS011;11536;50.860;4.286;2022-12-07T09:20:43;12.18;;;5.80;;
22737;SDS011;11536;50.860;4.286;2022-12-07T09:23:09;14.35;;;6.00;;
22737;SDS011;11536;50.860;4.286;2022-12-07T09:25:35;13.18;;;4.97;;
22737;SDS011;11536;50.860;4.286;2022-12-07T09:28:00;12.10;;;6.90;;
22737;SDS011;11536;50.860;4.286;2022-12-07T09:30:26;16.90;;;9.10;;
22737;SDS011;11536;50.860;4.286;2022-12-07T09:32:52;15.35;;;8.57;;
22737;SDS011;11536;50.860;4.286;2022-12-07T09:35:19;13.13;;;7.60;;
22737;SDS011;11536;50.860;4.286;2022-12-07T09:37:44;16.50;;;8.30;;
22737;SDS011;11536;50.860;4.286;2022-12-07T09:40:10;12.57;;;7.65;;
22737;SDS011;11536;50.860;4.286;2022-12-07T09:42:37;18.67;;;8.57;;
22737;SDS011;11536;50.860;4.286;2022-12-07T09:45:05;13.93;;;7.82;;
22737;SDS011;11536;50.860;4.286;2022-12-07T09:47:37;13.05;;;8.07;;
22737;SDS011;11536;50.860;4.286;2022-12-07T09:50:04;16.40;;;8.38;;
22737;SDS011;11536;50.860;4.286;2022-12-07T09:52:36;15.43;;;7.63;;
22737;SDS011;11536;50.860;4.286;2022-12-07T09:55:02;15.93;;;8.93;;
22737;SDS011;11536;50.860;4.286;2022-12-07T09:57:29;15.85;;;9.20;;
22737;SDS011;11536;50.860;4.286;2022-12-07T09:59:58;14.93;;;8.32;;
22737;SDS011;11536;50.860;4.286;2022-12-07T10:05:03;15.15;;;8.65;;
22737;SDS011;11536;50.860;4.286;2022-12-07T10:07:37;13.73;;;8.38;;
22737;SDS011;11536;50.860;4.286;2022-12-07T10:10:03;17.25;;;9.05;;
22737;SDS011;11536;50.860;4.286;2022-12-07T10:12:32;14.57;;;7.93;;
22737;SDS011;11536;50.860;4.286;2022-12-07T10:15:21;18.17;;;8.50;;
22737;SDS011;11536;50.860;4.286;2022-12-07T10:17:47;15.32;;;7.78;;
22737;SDS011;11536;50.860;4.286;2022-12-07T10:20:16;13.10;;;5.90;;
22737;SDS011;11536;50.860;4.286;2022-12-07T10:25:21;14.15;;;6.15;;
22737;SDS011;11536;50.860;4.286;2022-12-07T10:36:17;12.73;;;5.18;;
22737;SDS011;11536;50.860;4.286;2022-12-07T10:39:30;12.50;;;5.35;;
22737;SDS011;11536;50.860;4.286;2022-12-07T10:44:24;12.88;;;5.07;;
22737;SDS011;11536;50.860;4.286;2022-12-07T10:47:01;11.07;;;5.22;;
22737;SDS011;11536;50.860;4.286;2022-12-07T10:55:22;15.60;;;5.43;;
22737;SDS011;11536;50.860;4.286;2022-12-07T11:12:11;16.70;;;5.90;;
22737;SDS011;11536;50.860;4.286;2022-12-07T11:14:47;12.90;;;5.55;;
22737;SDS011;11536;50.860;4.286;2022-12-07T11:18:16;12.90;;;5.40;;
22737;SDS011;11536;50.860;4.286;2022-12-07T11:20:41;12.27;;;5.55;;
22737;SDS011;11536;50.860;4.286;2022-12-07T11:26:11;14.07;;;5.70;;
22737;SDS011;11536;50.860;4.286;2022-12-07T11:34:10;12.52;;;5.28;;
22737;SDS011;11536;50.860;4.286;2022-12-07T11:36:50;17.10;;;5.72;;
22737;SDS011;11536;50.860;4.286;2022-12-07T11:41:47;15.70;;;5.97;;
22737;SDS011;11536;50.860;4.286;2022-12-07T11:44:26;14.00;;;5.63;;
22737;SDS011;11536;50.860;4.286;2022-12-07T11:47:00;11.02;;;5.75;;
22737;SDS011;11536;50.860;4.286;2022-12-07T11:52:30;12.85;;;4.75;;
22737;SDS011;11536;50.860;4.286;2022-12-07T11:54:56;11.77;;;4.13;;
22737;SDS011;11536;50.860;4.286;2022-12-07T11:57:26;15.70;;;5.35;;
22737;SDS011;11536;50.860;4.286;2022-12-07T12:02:28;8.40;;;3.83;;
22737;SDS011;11536;50.860;4.286;2022-12-07T12:05:23;8.23;;;3.33;;
22737;SDS011;11536;50.860;4.286;2022-12-07T12:10:35;12.10;;;4.10;;
22737;SDS011;11536;50.860;4.286;2022-12-07T12:26:21;8.40;;;2.95;;
22737;SDS011;11536;50.860;4.286;2022-12-07T12:29:18;10.20;;;2.75;;
22737;SDS011;11536;50.860;4.286;2022-12-07T12:31:46;9.00;;;2.90;;
22737;SDS011;11536;50.860;4.286;2022-12-07T12:34:38;12.63;;;3.33;;
22737;SDS011;11536;50.860;4.286;2022-12-07T12:37:41;9.82;;;2.97;;
22737;SDS011;11536;50.860;4.286;2022-12-07T12:47:59;5.03;;;1.93;;
22737;SDS011;11536;50.860;4.286;2022-12-07T12:58:36;12.80;;;3.28;;
22737;SDS011;11536;50.860;4.286;2022-12-07T13:04:00;8.60;;;2.60;;
22737;SDS011;11536;50.860;4.286;2022-12-07T13:06:34;7.30;;;2.58;;
22737;SDS011;11536;50.860;4.286;2022-12-07T13:09:03;9.30;;;3.05;;
22737;SDS011;11536;50.860;4.286;2022-12-07T13:11:31;10.95;;;4.30;;
22737;SDS011;11536;50.860;4.286;2022-12-07T13:17:07;13.27;;;4.75;;
22737;SDS011;11536;50.860;4.286;2022-12-07T13:22:28;10.13;;;4.53;;
22737;SDS011;11536;50.860;4.286;2022-12-07T13:25:18;5.72;;;2.03;;
22737;SDS011;11536;50.860;4.286;2022-12-07T13:28:33;6.05;;;1.98;;
22737;SDS011;11536;50.860;4.286;2022-12-07T13:30:33;9.52;;;2.90;;
22737;SDS011;11536;50.860;4.286;2022-12-07T13:33:17;8.35;;;2.75;;
22737;SDS011;11536;50.860;4.286;2022-12-07T13:35:44;9.50;;;3.28;;
22737;SDS011;11536;50.860;4.286;2022-12-07T13:41:10;9.02;;;3.35;;
22737;SDS011;11536;50.860;4.286;2022-12-07T13:46:50;10.43;;;3.58;;
22737;SDS011;11536;50.860;4.286;2022-12-07T13:49:38;5.85;;;2.20;;
22737;SDS011;11536;50.860;4.286;2022-12-07T13:52:20;7.30;;;2.50;;
22737;SDS011;11536;50.860;4.286;2022-12-07T13:54:49;5.47;;;1.50;;
22737;SDS011;11536;50.860;4.286;2022-12-07T13:57:22;6.63;;;1.80;;
22737;SDS011;11536;50.860;4.286;2022-12-07T13:59:50;7.72;;;2.03;;
22737;SDS011;11536;50.860;4.286;2022-12-07T14:02:25;4.65;;;1.95;;
22737;SDS011;11536;50.860;4.286;2022-12-07T14:05:05;9.60;;;2.08;;
22737;SDS011;11536;50.860;4.286;2022-12-07T14:12:53;6.00;;;2.28;;
22737;SDS011;11536;50.860;4.286;2022-12-07T14:15:23;6.20;;;1.98;;
22737;SDS011;11536;50.860;4.286;2022-12-07T14:17:56;6.30;;;1.77;;
22737;SDS011;11536;50.860;4.286;2022-12-07T14:20:32;7.80;;;2.35;;
22737;SDS011;11536;50.860;4.286;2022-12-07T14:23:21;8.88;;;1.70;;
22737;SDS011;11536;50.860;4.286;2022-12-07T14:25:49;6.93;;;1.08;;
22737;SDS011;11536;50.860;4.286;2022-12-07T14:28:26;4.85;;;1.60;;
22737;SDS011;11536;50.860;4.286;2022-12-07T14:30:56;7.32;;;1.65;;
22737;SDS011;11536;50.860;4.286;2022-12-07T14:33:22;4.15;;;1.45;;
22737;SDS011;11536;50.860;4.286;2022-12-07T14:35:50;5.32;;;1.30;;
22737;SDS011;11536;50.860;4.286;2022-12-07T14:38:20;4.05;;;1.10;;
22737;SDS011;11536;50.860;4.286;2022-12-07T14:40:46;4.15;;;1.33;;
22737;SDS011;11536;50.860;4.286;2022-12-07T14:43:13;4.60;;;1.35;;
22737;SDS011;11536;50.860;4.286;2022-12-07T14:45:40;4.72;;;1.25;;
22737;SDS011;11536;50.860;4.286;2022-12-07T14:48:15;4.88;;;1.30;;
22737;SDS011;11536;50.860;4.286;2022-12-07T14:50:45;4.75;;;1.33;;
22737;SDS011;11536;50.860;4.286;2022-12-07T14:53:16;6.10;;;1.50;;
22737;SDS011;11536;50.860;4.286;2022-12-07T14:55:43;6.03;;;1.70;;
22737;SDS011;11536;50.860;4.286;2022-12-07T14:58:16;6.80;;;2.00;;
22737;SDS011;11536;50.860;4.286;2022-12-07T15:00:42;10.90;;;3.97;;
22737;SDS011;11536;50.860;4.286;2022-12-07T15:03:09;7.45;;;2.55;;
22737;SDS011;11536;50.860;4.286;2022-12-07T15:05:35;6.85;;;2.50;;
22737;SDS011;11536;50.860;4.286;2022-12-07T15:08:02;6.65;;;3.05;;
22737;SDS011;11536;50.860;4.286;2022-12-07T15:10:29;13.50;;;4.55;;
22737;SDS011;11536;50.860;4.286;2022-12-07T15:12:57;9.18;;;3.90;;
22737;SDS011;11536;50.860;4.286;2022-12-07T15:15:43;12.98;;;8.35;;
22737;SDS011;11536;50.860;4.286;2022-12-07T15:18:08;15.80;;;9.52;;
22737;SDS011;11536;50.860;4.286;2022-12-07T15:20:34;16.40;;;8.80;;
22737;SDS011;11536;50.860;4.286;2022-12-07T15:22:59;11.27;;;5.55;;
22737;SDS011;11536;50.860;4.286;2022-12-07T15:25:25;8.05;;;3.20;;
22737;SDS011;11536;50.860;4.286;2022-12-07T15:27:51;6.35;;;2.10;;
22737;SDS011;11536;50.860;4.286;2022-12-07T15:30:16;7.88;;;2.40;;
22737;SDS011;11536;50.860;4.286;2022-12-07T15:32:42;8.05;;;2.63;;
22737;SDS011;11536;50.860;4.286;2022-12-07T15:35:08;10.95;;;3.60;;
22737;SDS011;11536;50.860;4.286;2022-12-07T15:37:33;6.68;;;2.42;;
22737;SDS011;11536;50.860;4.286;2022-12-07T15:39:59;12.63;;;3.53;;
22737;SDS011;11536;50.860;4.286;2022-12-07T15:42:24;8.40;;;3.33;;
22737;SDS011;11536;50.860;4.286;2022-12-07T15:44:50;9.55;;;3.30;;
22737;SDS011;11536;50.860;4.286;2022-12-07T15:47:31;9.30;;;3.63;;
22737;SDS011;11536;50.860;4.286;2022-12-07T15:50:03;10.57;;;4.22;;
22737;SDS011;11536;50.860;4.286;2022-12-07T15:52:30;12.32;;;4.40;;
22737;SDS011;11536;50.860;4.286;2022-12-07T15:54:56;14.77;;;7.40;;
22737;SDS011;11536;50.860;4.286;2022-12-07T15:57:21;14.30;;;7.55;;
22737;SDS011;11536;50.860;4.286;2022-12-07T15:59:47;10.73;;;4.97;;
22737;SDS011;11536;50.860;4.286;2022-12-07T16:02:13;12.27;;;4.60;;
22737;SDS011;11536;50.860;4.286;2022-12-07T16:04:39;9.15;;;4.25;;
22737;SDS011;11536;50.860;4.286;2022-12-07T16:07:04;10.02;;;3.95;;
22737;SDS011;11536;50.860;4.286;2022-12-07T16:09:30;10.68;;;4.45;;
22737;SDS011;11536;50.860;4.286;2022-12-07T16:11:57;9.02;;;3.75;;
22737;SDS011;11536;50.860;4.286;2022-12-07T16:14:22;10.50;;;4.43;;
22737;SDS011;11536;50.860;4.286;2022-12-07T16:16:48;9.75;;;4.30;;
22737;SDS011;11536;50.860;4.286;2022-12-07T16:19:14;11.68;;;5.90;;
22737;SDS011;11536;50.860;4.286;2022-12-07T16:21:40;10.25;;;4.70;;
22737;SDS011;11536;50.860;4.286;2022-12-07T16:24:07;12.23;;;5.70;;
22737;SDS011;11536;50.860;4.286;2022-12-07T16:26:33;14.13;;;6.03;;
22737;SDS011;11536;50.860;4.286;2022-12-07T16:28:58;14.30;;;6.10;;
22737;SDS011;11536;50.860;4.286;2022-12-07T16:31:25;12.18;;;4.90;;
22737;SDS011;11536;50.860;4.286;2022-12-07T16:33:53;13.07;;;6.95;;
22737;SDS011;11536;50.860;4.286;2022-12-07T16:36:22;12.90;;;6.72;;
22737;SDS011;11536;50.860;4.286;2022-12-07T16:38:50;11.38;;;6.82;;
22737;SDS011;11536;50.860;4.286;2022-12-07T16:41:15;11.35;;;6.10;;
22737;SDS011;11536;50.860;4.286;2022-12-07T16:43:41;13.85;;;7.35;;
22737;SDS011;11536;50.860;4.286;2022-12-07T16:46:07;13.23;;;6.88;;
22737;SDS011;11536;50.860;4.286;2022-12-07T16:48:38;12.65;;;7.38;;
22737;SDS011;11536;50.860;4.286;2022-12-07T16:51:05;12.82;;;7.28;;
22737;SDS011;11536;50.860;4.286;2022-12-07T16:53:33;13.40;;;7.57;;
22737;SDS011;11536;50.860;4.286;2022-12-07T16:56:00;15.48;;;8.18;;
22737;SDS011;11536;50.860;4.286;2022-12-07T16:58:26;12.13;;;6.55;;